sensor_id;sensor_type;location;lat;lon;timestamp;P1;durP1;ratioP1;P2;durP2;ratioP2
35128;SDS011;21301;43.626;10.580;2023-12-29T00:00:37;40.15;;;27.80;;
35128;SDS011;21301;43.626;10.580;2023-12-29T00:03:03;40.75;;;29.13;;
35128;SDS011;21301;43.626;10.580;2023-12-29T00:05:29;42.85;;;29.48;;
35128;SDS011;21301;43.626;10.580;2023-12-29T00:07:55;40.97;;;28.60;;
35128;SDS011;21301;43.626;10.580;2023-12-29T00:10:22;43.00;;;29.70;;
35128;SDS011;21301;43.626;10.580;2023-12-29T00:12:48;42.15;;;28.70;;
35128;SDS011;21301;43.626;10.580;2023-12-29T00:15:16;40.78;;;28.63;;
35128;SDS011;21301;43.626;10.580;2023-12-29T00:17:43;37.65;;;25.70;;
35128;SDS011;21301;43.626;10.580;2023-12-29T00:20:09;38.40;;;22.92;;
35128;SDS011;21301;43.626;10.580;2023-12-29T00:22:35;30.83;;;22.27;;
35128;SDS011;21301;43.626;10.580;2023-12-29T00:25:02;33.10;;;22.38;;
35128;SDS011;21301;43.626;10.580;2023-12-29T00:27:28;30.63;;;21.50;;
35128;SDS011;21301;43.626;10.580;2023-12-29T00:29:53;29.52;;;19.63;;
35128;SDS011;21301;43.626;10.580;2023-12-29T00:32:19;33.45;;;21.33;;
35128;SDS011;21301;43.626;10.580;2023-12-29T00:34:45;34.10;;;22.60;;
35128;SDS011;21301;43.626;10.580;2023-12-29T00:37:11;29.27;;;19.58;;
35128;SDS011;21301;43.626;10.580;2023-12-29T00:39:36;25.42;;;18.05;;
35128;SDS011;21301;43.626;10.580;2023-12-29T00:42:05;25.95;;;18.55;;
35128;SDS011;21301;43.626;10.580;2023-12-29T00:44:33;26.55;;;17.52;;
35128;SDS011;21301;43.626;10.580;2023-12-29T00:46:59;22.42;;;16.92;;
35128;SDS011;21301;43.626;10.580;2023-12-29T00:49:26;20.65;;;14.85;;
35128;SDS011;21301;43.626;10.580;2023-12-29T00:51:51;25.10;;;17.75;;
35128;SDS011;21301;43.626;10.580;2023-12-29T00:54:19;26.08;;;16.98;;
35128;SDS011;21301;43.626;10.580;2023-12-29T00:56:48;24.00;;;16.80;;
35128;SDS011;21301;43.626;10.580;2023-12-29T00:59:14;22.92;;;17.17;;
35128;SDS011;21301;43.626;10.580;2023-12-29T01:01:40;26.55;;;16.15;;
35128;SDS011;21301;43.626;10.580;2023-12-29T01:04:06;25.58;;;18.08;;
35128;SDS011;21301;43.626;10.580;2023-12-29T01:06:32;23.13;;;16.35;;
35128;SDS011;21301;43.626;10.580;2023-12-29T01:08:58;25.98;;;17.20;;
35128;SDS011;21301;43.626;10.580;2023-12-29T01:11:23;21.05;;;14.48;;
35128;SDS011;21301;43.626;10.580;2023-12-29T01:13:50;21.08;;;15.70;;
35128;SDS011;21301;43.626;10.580;2023-12-29T01:16:16;20.00;;;14.18;;
35128;SDS011;21301;43.626;10.580;2023-12-29T01:18:41;20.33;;;13.15;;
35128;SDS011;21301;43.626;10.580;2023-12-29T01:21:08;20.75;;;12.85;;
35128;SDS011;21301;43.626;10.580;2023-12-29T01:23:34;20.65;;;12.60;;
35128;SDS011;21301;43.626;10.580;2023-12-29T01:25:59;20.60;;;12.95;;
35128;SDS011;21301;43.626;10.580;2023-12-29T01:28:25;16.67;;;11.40;;
35128;SDS011;21301;43.626;10.580;2023-12-29T01:30:51;18.55;;;11.77;;
35128;SDS011;21301;43.626;10.580;2023-12-29T01:33:16;15.90;;;12.05;;
35128;SDS011;21301;43.626;10.580;2023-12-29T01:35:42;17.60;;;11.65;;
35128;SDS011;21301;43.626;10.580;2023-12-29T01:38:07;15.45;;;10.98;;
35128;SDS011;21301;43.626;10.580;2023-12-29T01:40:41;15.20;;;11.00;;
35128;SDS011;21301;43.626;10.580;2023-12-29T01:43:08;15.25;;;10.45;;
35128;SDS011;21301;43.626;10.580;2023-12-29T01:45:34;17.77;;;11.15;;
35128;SDS011;21301;43.626;10.580;2023-12-29T01:48:00;15.57;;;11.40;;
35128;SDS011;21301;43.626;10.580;2023-12-29T01:50:25;17.00;;;9.75;;
35128;SDS011;21301;43.626;10.580;2023-12-29T01:52:51;18.58;;;11.63;;
35128;SDS011;21301;43.626;10.580;2023-12-29T01:55:18;17.48;;;12.02;;
35128;SDS011;21301;43.626;10.580;2023-12-29T01:57:48;22.10;;;14.88;;
35128;SDS011;21301;43.626;10.580;2023-12-29T02:00:15;28.35;;;20.75;;
35128;SDS011;21301;43.626;10.580;2023-12-29T02:02:42;31.33;;;21.85;;
35128;SDS011;21301;43.626;10.580;2023-12-29T02:05:09;32.90;;;23.60;;
35128;SDS011;21301;43.626;10.580;2023-12-29T02:07:40;37.65;;;26.13;;
35128;SDS011;21301;43.626;10.580;2023-12-29T02:10:06;44.47;;;29.95;;
35128;SDS011;21301;43.626;10.580;2023-12-29T02:12:34;39.45;;;26.90;;
35128;SDS011;21301;43.626;10.580;2023-12-29T02:15:02;44.38;;;28.45;;
35128;SDS011;21301;43.626;10.580;2023-12-29T02:17:36;43.25;;;28.85;;
35128;SDS011;21301;43.626;10.580;2023-12-29T02:20:07;46.45;;;30.90;;
35128;SDS011;21301;43.626;10.580;2023-12-29T02:22:34;45.70;;;29.92;;
35128;SDS011;21301;43.626;10.580;2023-12-29T02:25:01;40.45;;;30.45;;
35128;SDS011;21301;43.626;10.580;2023-12-29T02:27:43;42.38;;;30.67;;
35128;SDS011;21301;43.626;10.580;2023-12-29T02:33:07;38.80;;;27.30;;
35128;SDS011;21301;43.626;10.580;2023-12-29T02:35:38;40.40;;;29.17;;
35128;SDS011;21301;43.626;10.580;2023-12-29T02:38:06;41.08;;;27.33;;
35128;SDS011;21301;43.626;10.580;2023-12-29T02:40:32;44.80;;;30.25;;
35128;SDS011;21301;43.626;10.580;2023-12-29T02:42:57;50.13;;;30.90;;
35128;SDS011;21301;43.626;10.580;2023-12-29T02:45:23;48.17;;;31.17;;
35128;SDS011;21301;43.626;10.580;2023-12-29T02:47:49;45.33;;;31.58;;
35128;SDS011;21301;43.626;10.580;2023-12-29T02:50:15;45.60;;;32.95;;
35128;SDS011;21301;43.626;10.580;2023-12-29T02:52:41;47.28;;;34.13;;
35128;SDS011;21301;43.626;10.580;2023-12-29T02:55:07;48.97;;;33.95;;
35128;SDS011;21301;43.626;10.580;2023-12-29T02:57:33;49.63;;;35.28;;
35128;SDS011;21301;43.626;10.580;2023-12-29T02:59:59;53.80;;;34.53;;
35128;SDS011;21301;43.626;10.580;2023-12-29T03:02:25;56.65;;;37.83;;
35128;SDS011;21301;43.626;10.580;2023-12-29T03:04:52;46.95;;;32.53;;
35128;SDS011;21301;43.626;10.580;2023-12-29T03:07:19;49.83;;;34.95;;
35128;SDS011;21301;43.626;10.580;2023-12-29T03:09:44;53.25;;;36.88;;
35128;SDS011;21301;43.626;10.580;2023-12-29T03:12:11;48.25;;;34.60;;
35128;SDS011;21301;43.626;10.580;2023-12-29T03:14:37;53.60;;;35.97;;
35128;SDS011;21301;43.626;10.580;2023-12-29T03:17:03;52.67;;;35.35;;
35128;SDS011;21301;43.626;10.580;2023-12-29T03:19:29;56.78;;;35.72;;
35128;SDS011;21301;43.626;10.580;2023-12-29T03:21:56;56.03;;;35.15;;
35128;SDS011;21301;43.626;10.580;2023-12-29T03:24:21;58.55;;;39.22;;
35128;SDS011;21301;43.626;10.580;2023-12-29T03:26:47;47.78;;;34.03;;
35128;SDS011;21301;43.626;10.580;2023-12-29T03:29:13;51.40;;;34.92;;
35128;SDS011;21301;43.626;10.580;2023-12-29T03:31:38;50.88;;;35.90;;
35128;SDS011;21301;43.626;10.580;2023-12-29T03:34:05;46.40;;;34.35;;
35128;SDS011;21301;43.626;10.580;2023-12-29T03:36:31;49.67;;;34.35;;
35128;SDS011;21301;43.626;10.580;2023-12-29T03:38:57;42.78;;;31.83;;
35128;SDS011;21301;43.626;10.580;2023-12-29T03:41:23;39.25;;;26.20;;
35128;SDS011;21301;43.626;10.580;2023-12-29T03:43:49;36.78;;;23.75;;
35128;SDS011;21301;43.626;10.580;2023-12-29T03:46:21;30.13;;;20.33;;
35128;SDS011;21301;43.626;10.580;2023-12-29T03:48:50;34.70;;;25.05;;
35128;SDS011;21301;43.626;10.580;2023-12-29T03:51:15;43.25;;;26.63;;
35128;SDS011;21301;43.626;10.580;2023-12-29T03:53:42;35.85;;;26.15;;
35128;SDS011;21301;43.626;10.580;2023-12-29T03:56:08;39.35;;;26.48;;
35128;SDS011;21301;43.626;10.580;2023-12-29T03:58:38;36.95;;;27.08;;
35128;SDS011;21301;43.626;10.580;2023-12-29T04:01:04;37.70;;;27.55;;
35128;SDS011;21301;43.626;10.580;2023-12-29T04:03:34;38.95;;;26.80;;
35128;SDS011;21301;43.626;10.580;2023-12-29T04:05:59;42.92;;;26.52;;
35128;SDS011;21301;43.626;10.580;2023-12-29T04:08:25;33.42;;;22.45;;
35128;SDS011;21301;43.626;10.580;2023-12-29T04:10:50;31.92;;;22.55;;
35128;SDS011;21301;43.626;10.580;2023-12-29T04:13:16;29.98;;;21.13;;
35128;SDS011;21301;43.626;10.580;2023-12-29T04:15:42;33.58;;;22.30;;
35128;SDS011;21301;43.626;10.580;2023-12-29T04:18:07;23.67;;;16.80;;
35128;SDS011;21301;43.626;10.580;2023-12-29T04:20:33;25.77;;;18.67;;
35128;SDS011;21301;43.626;10.580;2023-12-29T04:22:58;25.15;;;16.48;;
35128;SDS011;21301;43.626;10.580;2023-12-29T04:25:24;34.78;;;21.05;;
35128;SDS011;21301;43.626;10.580;2023-12-29T04:27:50;30.52;;;20.95;;
35128;SDS011;21301;43.626;10.580;2023-12-29T04:30:16;28.20;;;20.05;;
35128;SDS011;21301;43.626;10.580;2023-12-29T04:32:42;35.70;;;24.20;;
35128;SDS011;21301;43.626;10.580;2023-12-29T04:35:08;34.88;;;24.17;;
35128;SDS011;21301;43.626;10.580;2023-12-29T04:37:37;30.20;;;22.55;;
35128;SDS011;21301;43.626;10.580;2023-12-29T04:40:04;42.28;;;23.75;;
35128;SDS011;21301;43.626;10.580;2023-12-29T04:42:30;36.58;;;28.38;;
35128;SDS011;21301;43.626;10.580;2023-12-29T04:44:56;36.40;;;26.63;;
35128;SDS011;21301;43.626;10.580;2023-12-29T04:47:21;39.60;;;25.92;;
35128;SDS011;21301;43.626;10.580;2023-12-29T04:49:47;41.25;;;29.80;;
35128;SDS011;21301;43.626;10.580;2023-12-29T04:52:13;49.72;;;31.92;;
35128;SDS011;21301;43.626;10.580;2023-12-29T04:54:38;44.80;;;31.52;;
35128;SDS011;21301;43.626;10.580;2023-12-29T04:57:04;46.78;;;33.25;;
35128;SDS011;21301;43.626;10.580;2023-12-29T04:59:29;47.50;;;32.53;;
35128;SDS011;21301;43.626;10.580;2023-12-29T05:01:56;48.55;;;31.40;;
35128;SDS011;21301;43.626;10.580;2023-12-29T05:04:22;45.40;;;31.70;;
35128;SDS011;21301;43.626;10.580;2023-12-29T05:06:47;42.45;;;31.38;;
35128;SDS011;21301;43.626;10.580;2023-12-29T05:09:13;44.80;;;31.23;;
35128;SDS011;21301;43.626;10.580;2023-12-29T05:11:39;43.20;;;30.25;;
35128;SDS011;21301;43.626;10.580;2023-12-29T05:14:04;42.92;;;29.48;;
35128;SDS011;21301;43.626;10.580;2023-12-29T05:16:30;46.03;;;30.42;;
35128;SDS011;21301;43.626;10.580;2023-12-29T05:18:55;41.90;;;29.02;;
35128;SDS011;21301;43.626;10.580;2023-12-29T05:21:21;35.60;;;27.00;;
35128;SDS011;21301;43.626;10.580;2023-12-29T05:23:47;41.08;;;29.67;;
35128;SDS011;21301;43.626;10.580;2023-12-29T05:26:14;40.90;;;30.15;;
35128;SDS011;21301;43.626;10.580;2023-12-29T05:28:40;40.42;;;27.33;;
35128;SDS011;21301;43.626;10.580;2023-12-29T05:31:05;39.70;;;29.15;;
35128;SDS011;21301;43.626;10.580;2023-12-29T05:33:33;45.30;;;29.90;;
35128;SDS011;21301;43.626;10.580;2023-12-29T05:35:59;46.83;;;32.83;;
35128;SDS011;21301;43.626;10.580;2023-12-29T05:38:32;50.35;;;33.17;;
35128;SDS011;21301;43.626;10.580;2023-12-29T05:41:00;40.25;;;28.98;;
35128;SDS011;21301;43.626;10.580;2023-12-29T05:43:28;39.00;;;28.17;;
35128;SDS011;21301;43.626;10.580;2023-12-29T05:45:56;44.20;;;30.63;;
35128;SDS011;21301;43.626;10.580;2023-12-29T05:48:23;40.65;;;28.77;;
35128;SDS011;21301;43.626;10.580;2023-12-29T05:50:49;41.30;;;28.02;;
35128;SDS011;21301;43.626;10.580;2023-12-29T05:53:15;45.33;;;32.05;;
35128;SDS011;21301;43.626;10.580;2023-12-29T05:55:41;51.25;;;37.28;;
35128;SDS011;21301;43.626;10.580;2023-12-29T05:58:06;47.92;;;35.60;;
35128;SDS011;21301;43.626;10.580;2023-12-29T06:00:32;50.10;;;33.08;;
35128;SDS011;21301;43.626;10.580;2023-12-29T06:02:58;49.25;;;34.05;;
35128;SDS011;21301;43.626;10.580;2023-12-29T06:05:24;41.97;;;30.73;;
35128;SDS011;21301;43.626;10.580;2023-12-29T06:07:50;46.13;;;30.15;;
35128;SDS011;21301;43.626;10.580;2023-12-29T06:10:17;44.78;;;31.83;;
35128;SDS011;21301;43.626;10.580;2023-12-29T06:12:43;42.35;;;28.42;;
35128;SDS011;21301;43.626;10.580;2023-12-29T06:15:09;42.30;;;30.33;;
35128;SDS011;21301;43.626;10.580;2023-12-29T06:17:34;48.28;;;32.72;;
35128;SDS011;21301;43.626;10.580;2023-12-29T06:20:00;47.92;;;31.35;;
35128;SDS011;21301;43.626;10.580;2023-12-29T06:22:27;46.05;;;31.10;;
35128;SDS011;21301;43.626;10.580;2023-12-29T06:24:53;37.08;;;25.98;;
35128;SDS011;21301;43.626;10.580;2023-12-29T06:27:18;38.45;;;28.65;;
35128;SDS011;21301;43.626;10.580;2023-12-29T06:29:44;42.03;;;27.98;;
35128;SDS011;21301;43.626;10.580;2023-12-29T06:32:09;44.58;;;29.42;;
35128;SDS011;21301;43.626;10.580;2023-12-29T06:34:37;40.55;;;28.58;;
35128;SDS011;21301;43.626;10.580;2023-12-29T06:37:02;38.00;;;27.38;;
35128;SDS011;21301;43.626;10.580;2023-12-29T06:39:29;39.97;;;27.73;;
35128;SDS011;21301;43.626;10.580;2023-12-29T06:41:55;41.65;;;26.98;;
35128;SDS011;21301;43.626;10.580;2023-12-29T06:44:20;37.70;;;27.27;;
35128;SDS011;21301;43.626;10.580;2023-12-29T06:46:46;36.95;;;27.55;;
35128;SDS011;21301;43.626;10.580;2023-12-29T06:49:12;35.95;;;24.90;;
35128;SDS011;21301;43.626;10.580;2023-12-29T06:51:37;40.58;;;27.77;;
35128;SDS011;21301;43.626;10.580;2023-12-29T06:54:06;36.65;;;27.08;;
35128;SDS011;21301;43.626;10.580;2023-12-29T06:56:31;41.22;;;27.58;;
35128;SDS011;21301;43.626;10.580;2023-12-29T06:58:57;36.08;;;24.92;;
35128;SDS011;21301;43.626;10.580;2023-12-29T07:01:23;38.08;;;26.27;;
35128;SDS011;21301;43.626;10.580;2023-12-29T07:03:49;34.58;;;25.58;;
35128;SDS011;21301;43.626;10.580;2023-12-29T07:06:15;39.60;;;26.35;;
35128;SDS011;21301;43.626;10.580;2023-12-29T07:08:42;34.67;;;22.90;;
35128;SDS011;21301;43.626;10.580;2023-12-29T07:11:11;41.28;;;24.88;;
35128;SDS011;21301;43.626;10.580;2023-12-29T07:13:37;33.60;;;24.70;;
35128;SDS011;21301;43.626;10.580;2023-12-29T07:16:03;39.13;;;24.73;;
35128;SDS011;21301;43.626;10.580;2023-12-29T07:18:29;40.60;;;25.73;;
35128;SDS011;21301;43.626;10.580;2023-12-29T07:20:55;33.33;;;25.33;;
35128;SDS011;21301;43.626;10.580;2023-12-29T07:23:20;37.65;;;26.27;;
35128;SDS011;21301;43.626;10.580;2023-12-29T07:25:47;42.20;;;26.67;;
35128;SDS011;21301;43.626;10.580;2023-12-29T07:28:13;44.38;;;28.85;;
35128;SDS011;21301;43.626;10.580;2023-12-29T07:30:38;34.60;;;27.27;;
35128;SDS011;21301;43.626;10.580;2023-12-29T07:33:04;40.42;;;27.95;;
35128;SDS011;21301;43.626;10.580;2023-12-29T07:35:30;35.83;;;26.13;;
35128;SDS011;21301;43.626;10.580;2023-12-29T07:37:56;37.67;;;27.13;;
35128;SDS011;21301;43.626;10.580;2023-12-29T07:40:23;37.17;;;27.05;;
35128;SDS011;21301;43.626;10.580;2023-12-29T07:42:49;42.97;;;29.40;;
35128;SDS011;21301;43.626;10.580;2023-12-29T07:45:16;46.67;;;30.25;;
35128;SDS011;21301;43.626;10.580;2023-12-29T07:47:42;41.00;;;30.13;;
35128;SDS011;21301;43.626;10.580;2023-12-29T07:50:07;42.33;;;31.00;;
35128;SDS011;21301;43.626;10.580;2023-12-29T07:52:33;45.83;;;32.60;;
35128;SDS011;21301;43.626;10.580;2023-12-29T07:54:59;40.63;;;30.00;;
35128;SDS011;21301;43.626;10.580;2023-12-29T07:57:25;50.80;;;31.45;;
35128;SDS011;21301;43.626;10.580;2023-12-29T07:59:52;41.08;;;28.52;;
35128;SDS011;21301;43.626;10.580;2023-12-29T08:02:18;45.42;;;30.98;;
35128;SDS011;21301;43.626;10.580;2023-12-29T08:04:43;41.00;;;27.10;;
35128;SDS011;21301;43.626;10.580;2023-12-29T08:07:11;45.65;;;30.23;;
35128;SDS011;21301;43.626;10.580;2023-12-29T08:09:37;40.22;;;26.25;;
35128;SDS011;21301;43.626;10.580;2023-12-29T08:12:03;37.97;;;27.52;;
35128;SDS011;21301;43.626;10.580;2023-12-29T08:14:30;38.85;;;27.30;;
35128;SDS011;21301;43.626;10.580;2023-12-29T08:16:55;35.67;;;26.95;;
35128;SDS011;21301;43.626;10.580;2023-12-29T08:19:22;33.03;;;24.55;;
35128;SDS011;21301;43.626;10.580;2023-12-29T08:21:48;36.25;;;25.80;;
35128;SDS011;21301;43.626;10.580;2023-12-29T08:24:13;35.53;;;25.75;;
35128;SDS011;21301;43.626;10.580;2023-12-29T08:26:46;34.20;;;24.80;;
35128;SDS011;21301;43.626;10.580;2023-12-29T08:29:14;42.33;;;27.20;;
35128;SDS011;21301;43.626;10.580;2023-12-29T08:31:41;35.65;;;24.13;;
35128;SDS011;21301;43.626;10.580;2023-12-29T08:34:07;34.92;;;26.00;;
35128;SDS011;21301;43.626;10.580;2023-12-29T08:36:33;41.45;;;28.83;;
35128;SDS011;21301;43.626;10.580;2023-12-29T08:38:58;43.33;;;25.60;;
35128;SDS011;21301;43.626;10.580;2023-12-29T08:41:24;41.20;;;27.92;;
35128;SDS011;21301;43.626;10.580;2023-12-29T08:43:49;35.95;;;26.98;;
35128;SDS011;21301;43.626;10.580;2023-12-29T08:46:15;41.42;;;26.67;;
35128;SDS011;21301;43.626;10.580;2023-12-29T08:48:41;38.45;;;26.27;;
35128;SDS011;21301;43.626;10.580;2023-12-29T08:51:07;38.78;;;26.63;;
35128;SDS011;21301;43.626;10.580;2023-12-29T08:53:33;35.53;;;27.02;;
35128;SDS011;21301;43.626;10.580;2023-12-29T08:56:03;37.50;;;27.52;;
35128;SDS011;21301;43.626;10.580;2023-12-29T08:58:29;43.45;;;30.80;;
35128;SDS011;21301;43.626;10.580;2023-12-29T09:00:55;40.28;;;29.13;;
35128;SDS011;21301;43.626;10.580;2023-12-29T09:03:22;42.08;;;30.52;;
35128;SDS011;21301;43.626;10.580;2023-12-29T09:05:48;40.88;;;30.48;;
35128;SDS011;21301;43.626;10.580;2023-12-29T09:08:14;44.63;;;30.60;;
35128;SDS011;21301;43.626;10.580;2023-12-29T09:10:39;39.45;;;30.95;;
35128;SDS011;21301;43.626;10.580;2023-12-29T09:13:05;44.60;;;32.40;;
35128;SDS011;21301;43.626;10.580;2023-12-29T09:15:31;46.45;;;31.67;;
35128;SDS011;21301;43.626;10.580;2023-12-29T09:17:56;40.33;;;30.85;;
35128;SDS011;21301;43.626;10.580;2023-12-29T09:20:22;43.35;;;30.85;;
35128;SDS011;21301;43.626;10.580;2023-12-29T09:22:47;42.38;;;29.20;;
35128;SDS011;21301;43.626;10.580;2023-12-29T09:25:13;41.85;;;29.30;;
35128;SDS011;21301;43.626;10.580;2023-12-29T09:27:39;43.65;;;33.45;;
35128;SDS011;21301;43.626;10.580;2023-12-29T09:30:04;46.97;;;32.95;;
35128;SDS011;21301;43.626;10.580;2023-12-29T09:32:32;42.53;;;31.02;;
35128;SDS011;21301;43.626;10.580;2023-12-29T09:34:57;43.63;;;31.00;;
35128;SDS011;21301;43.626;10.580;2023-12-29T09:37:24;41.70;;;30.13;;
35128;SDS011;21301;43.626;10.580;2023-12-29T09:39:50;46.78;;;32.30;;
35128;SDS011;21301;43.626;10.580;2023-12-29T09:42:19;44.78;;;32.53;;
35128;SDS011;21301;43.626;10.580;2023-12-29T09:44:51;50.70;;;34.65;;
35128;SDS011;21301;43.626;10.580;2023-12-29T09:47:27;49.22;;;33.00;;
35128;SDS011;21301;43.626;10.580;2023-12-29T09:49:55;55.58;;;35.78;;
35128;SDS011;21301;43.626;10.580;2023-12-29T09:52:21;58.08;;;39.67;;
35128;SDS011;21301;43.626;10.580;2023-12-29T09:54:51;54.25;;;38.58;;
35128;SDS011;21301;43.626;10.580;2023-12-29T09:57:17;59.65;;;43.13;;
35128;SDS011;21301;43.626;10.580;2023-12-29T09:59:44;57.92;;;40.45;;
35128;SDS011;21301;43.626;10.580;2023-12-29T10:02:14;56.97;;;41.63;;
35128;SDS011;21301;43.626;10.580;2023-12-29T10:04:41;59.70;;;41.67;;
35128;SDS011;21301;43.626;10.580;2023-12-29T10:07:07;60.80;;;43.75;;
35128;SDS011;21301;43.626;10.580;2023-12-29T10:09:36;61.70;;;42.58;;
35128;SDS011;21301;43.626;10.580;2023-12-29T10:12:04;58.75;;;41.80;;
35128;SDS011;21301;43.626;10.580;2023-12-29T10:14:41;57.63;;;43.33;;
35128;SDS011;21301;43.626;10.580;2023-12-29T10:26:10;57.45;;;42.35;;
35128;SDS011;21301;43.626;10.580;2023-12-29T10:28:36;53.17;;;39.92;;
35128;SDS011;21301;43.626;10.580;2023-12-29T10:31:03;56.38;;;40.20;;
35128;SDS011;21301;43.626;10.580;2023-12-29T10:33:32;57.55;;;41.28;;
35128;SDS011;21301;43.626;10.580;2023-12-29T10:36:02;60.08;;;42.17;;
35128;SDS011;21301;43.626;10.580;2023-12-29T10:38:30;56.72;;;41.92;;
35128;SDS011;21301;43.626;10.580;2023-12-29T10:41:09;52.85;;;38.00;;
35128;SDS011;21301;43.626;10.580;2023-12-29T10:43:41;54.17;;;39.17;;
35128;SDS011;21301;43.626;10.580;2023-12-29T10:46:09;52.25;;;39.65;;
35128;SDS011;21301;43.626;10.580;2023-12-29T10:48:35;51.15;;;38.75;;
35128;SDS011;21301;43.626;10.580;2023-12-29T10:51:02;53.47;;;36.97;;
35128;SDS011;21301;43.626;10.580;2023-12-29T10:53:33;48.05;;;37.30;;
35128;SDS011;21301;43.626;10.580;2023-12-29T10:55:59;54.35;;;38.15;;
35128;SDS011;21301;43.626;10.580;2023-12-29T10:58:27;44.67;;;33.90;;
35128;SDS011;21301;43.626;10.580;2023-12-29T11:00:57;49.15;;;36.22;;
35128;SDS011;21301;43.626;10.580;2023-12-29T11:03:25;46.15;;;34.33;;
35128;SDS011;21301;43.626;10.580;2023-12-29T11:05:51;48.03;;;33.53;;
35128;SDS011;21301;43.626;10.580;2023-12-29T11:08:27;43.03;;;30.75;;
35128;SDS011;21301;43.626;10.580;2023-12-29T11:10:53;44.78;;;33.53;;
35128;SDS011;21301;43.626;10.580;2023-12-29T11:13:21;40.67;;;29.75;;
35128;SDS011;21301;43.626;10.580;2023-12-29T11:15:47;41.72;;;28.95;;
35128;SDS011;21301;43.626;10.580;2023-12-29T11:18:13;40.38;;;30.35;;
35128;SDS011;21301;43.626;10.580;2023-12-29T11:20:42;49.60;;;33.17;;
35128;SDS011;21301;43.626;10.580;2023-12-29T11:23:09;52.00;;;36.88;;
35128;SDS011;21301;43.626;10.580;2023-12-29T11:25:36;52.47;;;38.03;;
35128;SDS011;21301;43.626;10.580;2023-12-29T11:28:03;61.92;;;39.55;;
35128;SDS011;21301;43.626;10.580;2023-12-29T11:30:31;53.00;;;38.55;;
35128;SDS011;21301;43.626;10.580;2023-12-29T11:33:02;53.88;;;38.10;;
35128;SDS011;21301;43.626;10.580;2023-12-29T11:35:42;64.30;;;48.00;;
35128;SDS011;21301;43.626;10.580;2023-12-29T11:41:17;56.08;;;37.40;;
35128;SDS011;21301;43.626;10.580;2023-12-29T11:43:59;47.38;;;35.22;;
35128;SDS011;21301;43.626;10.580;2023-12-29T11:46:37;45.20;;;31.65;;
35128;SDS011;21301;43.626;10.580;2023-12-29T11:49:08;50.83;;;33.97;;
35128;SDS011;21301;43.626;10.580;2023-12-29T11:51:39;51.38;;;35.67;;
35128;SDS011;21301;43.626;10.580;2023-12-29T11:54:20;56.72;;;34.95;;
35128;SDS011;21301;43.626;10.580;2023-12-29T11:56:50;51.53;;;37.00;;
35128;SDS011;21301;43.626;10.580;2023-12-29T11:59:23;58.25;;;40.42;;
35128;SDS011;21301;43.626;10.580;2023-12-29T12:07:03;51.13;;;37.35;;
35128;SDS011;21301;43.626;10.580;2023-12-29T12:09:30;49.22;;;36.90;;
35128;SDS011;21301;43.626;10.580;2023-12-29T12:11:55;53.15;;;38.38;;
35128;SDS011;21301;43.626;10.580;2023-12-29T12:17:09;55.13;;;39.03;;
35128;SDS011;21301;43.626;10.580;2023-12-29T12:19:35;50.85;;;38.22;;
35128;SDS011;21301;43.626;10.580;2023-12-29T12:22:01;61.08;;;42.78;;
35128;SDS011;21301;43.626;10.580;2023-12-29T12:24:27;53.08;;;37.72;;
35128;SDS011;21301;43.626;10.580;2023-12-29T12:26:56;55.40;;;38.90;;
35128;SDS011;21301;43.626;10.580;2023-12-29T12:29:22;52.83;;;37.70;;
35128;SDS011;21301;43.626;10.580;2023-12-29T12:31:56;53.83;;;38.90;;
35128;SDS011;21301;43.626;10.580;2023-12-29T12:34:23;48.75;;;37.45;;
35128;SDS011;21301;43.626;10.580;2023-12-29T12:36:50;60.13;;;45.22;;
35128;SDS011;21301;43.626;10.580;2023-12-29T12:39:16;61.53;;;40.55;;
35128;SDS011;21301;43.626;10.580;2023-12-29T12:41:43;53.92;;;41.30;;
35128;SDS011;21301;43.626;10.580;2023-12-29T12:44:13;55.40;;;40.83;;
35128;SDS011;21301;43.626;10.580;2023-12-29T12:46:41;66.25;;;43.10;;
35128;SDS011;21301;43.626;10.580;2023-12-29T12:49:14;51.83;;;40.25;;
35128;SDS011;21301;43.626;10.580;2023-12-29T12:51:40;46.80;;;37.33;;
35128;SDS011;21301;43.626;10.580;2023-12-29T12:54:06;56.90;;;40.08;;
35128;SDS011;21301;43.626;10.580;2023-12-29T12:56:32;57.08;;;42.05;;
35128;SDS011;21301;43.626;10.580;2023-12-29T12:58:59;57.67;;;41.35;;
35128;SDS011;21301;43.626;10.580;2023-12-29T13:01:27;50.42;;;38.38;;
35128;SDS011;21301;43.626;10.580;2023-12-29T13:03:56;52.55;;;37.22;;
35128;SDS011;21301;43.626;10.580;2023-12-29T13:06:23;55.78;;;39.85;;
35128;SDS011;21301;43.626;10.580;2023-12-29T13:08:50;55.60;;;39.78;;
35128;SDS011;21301;43.626;10.580;2023-12-29T13:11:20;60.28;;;40.83;;
35128;SDS011;21301;43.626;10.580;2023-12-29T13:13:47;48.88;;;36.85;;
35128;SDS011;21301;43.626;10.580;2023-12-29T13:16:14;62.08;;;42.70;;
35128;SDS011;21301;43.626;10.580;2023-12-29T13:18:39;55.17;;;38.65;;
35128;SDS011;21301;43.626;10.580;2023-12-29T13:21:05;53.22;;;37.58;;
35128;SDS011;21301;43.626;10.580;2023-12-29T13:23:32;53.03;;;39.38;;
35128;SDS011;21301;43.626;10.580;2023-12-29T13:26:08;57.75;;;38.85;;
35128;SDS011;21301;43.626;10.580;2023-12-29T13:28:35;56.42;;;41.63;;
35128;SDS011;21301;43.626;10.580;2023-12-29T13:31:02;56.20;;;40.00;;
35128;SDS011;21301;43.626;10.580;2023-12-29T13:36:42;61.10;;;42.67;;
35128;SDS011;21301;43.626;10.580;2023-12-29T13:42:23;62.53;;;42.90;;
35128;SDS011;21301;43.626;10.580;2023-12-29T13:44:55;66.93;;;44.75;;
35128;SDS011;21301;43.626;10.580;2023-12-29T13:47:22;58.47;;;41.70;;
35128;SDS011;21301;43.626;10.580;2023-12-29T13:49:49;61.13;;;43.92;;
35128;SDS011;21301;43.626;10.580;2023-12-29T13:52:16;58.17;;;42.95;;
35128;SDS011;21301;43.626;10.580;2023-12-29T13:54:43;64.78;;;44.78;;
35128;SDS011;21301;43.626;10.580;2023-12-29T13:57:10;60.75;;;42.38;;
35128;SDS011;21301;43.626;10.580;2023-12-29T13:59:36;57.97;;;40.55;;
35128;SDS011;21301;43.626;10.580;2023-12-29T14:05:15;53.50;;;39.00;;
35128;SDS011;21301;43.626;10.580;2023-12-29T14:07:45;55.08;;;36.88;;
35128;SDS011;21301;43.626;10.580;2023-12-29T14:10:17;49.78;;;37.05;;
35128;SDS011;21301;43.626;10.580;2023-12-29T14:12:44;51.40;;;34.88;;
35128;SDS011;21301;43.626;10.580;2023-12-29T14:15:11;50.40;;;37.28;;
35128;SDS011;21301;43.626;10.580;2023-12-29T14:17:38;52.47;;;36.28;;
35128;SDS011;21301;43.626;10.580;2023-12-29T14:20:07;45.85;;;33.70;;
35128;SDS011;21301;43.626;10.580;2023-12-29T14:22:35;50.00;;;33.38;;
35128;SDS011;21301;43.626;10.580;2023-12-29T14:25:01;43.78;;;31.17;;
35128;SDS011;21301;43.626;10.580;2023-12-29T14:27:29;49.13;;;33.70;;
35128;SDS011;21301;43.626;10.580;2023-12-29T14:29:56;48.78;;;34.63;;
35128;SDS011;21301;43.626;10.580;2023-12-29T14:32:22;49.80;;;35.05;;
35128;SDS011;21301;43.626;10.580;2023-12-29T14:34:49;52.47;;;35.65;;
35128;SDS011;21301;43.626;10.580;2023-12-29T14:37:21;46.88;;;35.22;;
35128;SDS011;21301;43.626;10.580;2023-12-29T14:39:50;47.47;;;33.08;;